Time;durP1;ratioP1;P1;durP2;ratioP2;P2;SDS_P1;SDS_P2;PMS_P1;PMS_P2;Temp;Humidity;BMP_temperature;BMP_pressure;BME280_temperature;BME280_humidity;BME280_pressure;Samples;Min_cycle;Max_cycle;Signal;HPM_P1;HPM_P2
2022/09/18 00:00:38;;;;;;;5.43;1.70;;;;;;;;;;5089092;28;20208;-78
2022/09/18 00:03:04;;;;;;;4.73;1.70;;;;;;;;;;5082768;28;20212;-77
2022/09/18 00:05:31;;;;;;;3.33;1.90;;;;;;;;;;5085784;28;20269;-77
2022/09/18 00:07:57;;;;;;;5.47;2.20;;;;;;;;;;5089117;28;20188;-77
2022/09/18 00:10:23;;;;;;;4.50;1.80;;;;;;;;;;5087129;28;20291;-75
2022/09/18 00:12:49;;;;;;;7.00;1.80;;;;;;;;;;5071933;28;20831;-77
2022/09/18 00:15:15;;;;;;;7.10;2.30;;;;;;;;;;5082332;28;20196;-77
2022/09/18 00:17:41;;;;;;;5.43;1.93;;;;;;;;;;5090415;28;20185;-77
2022/09/18 00:20:08;;;;;;;4.33;1.90;;;;;;;;;;5090111;28;20231;-78
2022/09/18 00:22:34;;;;;;;2.90;1.70;;;;;;;;;;5071856;28;20266;-77
2022/09/18 00:25:01;;;;;;;4.73;2.00;;;;;;;;;;5090249;28;20333;-77
2022/09/18 00:27:27;;;;;;;6.33;2.10;;;;;;;;;;5091459;28;20195;-77
2022/09/18 00:29:53;;;;;;;4.13;2.10;;;;;;;;;;5094300;28;20192;-77
2022/09/18 00:32:19;;;;;;;4.40;1.87;;;;;;;;;;5088389;28;20183;-76
2022/09/18 00:34:45;;;;;;;3.50;2.00;;;;;;;;;;5094717;28;20206;-77
2022/09/18 00:37:11;;;;;;;4.00;1.90;;;;;;;;;;5071439;28;20216;-77
2022/09/18 00:39:38;;;;;;;4.13;2.03;;;;;;;;;;5063617;28;20212;-76
2022/09/18 00:42:04;;;;;;;4.75;2.03;;;;;;;;;;5088439;28;20541;-77
2022/09/18 00:44:30;;;;;;;4.23;2.00;;;;;;;;;;5084052;28;20211;-78
2022/09/18 00:47:09;;;;;;;4.70;1.77;;;;;;;;;;5086760;28;20290;-78
2022/09/18 00:49:36;;;;;;;4.18;2.20;;;;;;;;;;5083872;28;20424;-77
2022/09/18 00:52:03;;;;;;;6.37;2.13;;;;;;;;;;5088564;28;20227;-77
2022/09/18 00:54:36;;;;;;;4.20;1.73;;;;;;;;;;5083852;28;20174;-78
2022/09/18 00:57:10;;;;;;;3.27;1.70;;;;;;;;;;5084880;28;20212;-77
2022/09/18 00:59:37;;;;;;;5.43;2.00;;;;;;;;;;5064977;28;20553;-77
2022/09/18 01:02:04;;;;;;;3.60;1.97;;;;;;;;;;5081732;28;20647;-77
2022/09/18 01:04:30;;;;;;;5.07;1.90;;;;;;;;;;5076620;28;20185;-78
2022/09/18 01:07:12;;;;;;;8.40;1.93;;;;;;;;;;5066186;28;20251;-77
2022/09/18 01:09:50;;;;;;;5.37;1.77;;;;;;;;;;5080378;28;20284;-78
2022/09/18 01:12:30;;;;;;;4.73;1.80;;;;;;;;;;5083668;28;20180;-77
2022/09/18 01:15:03;;;;;;;4.27;1.80;;;;;;;;;;5078254;28;20192;-77
2022/09/18 01:17:48;;;;;;;3.53;1.60;;;;;;;;;;5063271;28;20742;-77
2022/09/18 01:20:24;;;;;;;4.57;1.93;;;;;;;;;;5085122;28;20327;-77
2022/09/18 01:23:13;;;;;;;3.40;1.83;;;;;;;;;;5054298;28;20180;-78
2022/09/18 01:25:43;;;;;;;4.07;1.90;;;;;;;;;;5071509;28;20771;-75
2022/09/18 01:28:26;;;;;;;5.40;1.97;;;;;;;;;;5068842;28;20231;-77
2022/09/18 01:30:55;;;;;;;4.03;2.27;;;;;;;;;;5085808;28;20275;-78
2022/09/18 01:33:27;;;;;;;5.70;1.90;;;;;;;;;;5071017;28;20208;-76
2022/09/18 01:35:57;;;;;;;5.53;1.80;;;;;;;;;;5087252;28;20193;-77
2022/09/18 01:38:29;;;;;;;4.30;1.80;;;;;;;;;;5054290;28;20188;-78
2022/09/18 01:41:01;;;;;;;4.60;2.00;;;;;;;;;;5069117;28;20227;-77
2022/09/18 01:43:28;;;;;;;5.10;1.70;;;;;;;;;;5085809;28;20180;-77
2022/09/18 01:45:57;;;;;;;4.07;1.70;;;;;;;;;;5086787;28;20200;-77
2022/09/18 01:48:29;;;;;;;2.43;1.60;;;;;;;;;;5083457;28;20250;-78
2022/09/18 01:51:10;;;;;;;5.33;1.93;;;;;;;;;;5097625;28;20574;-78
2022/09/18 01:53:41;;;;;;;3.03;1.73;;;;;;;;;;5079118;28;20699;-77
2022/09/18 01:56:10;;;;;;;3.03;1.77;;;;;;;;;;5084510;28;20180;-77
2022/09/18 01:58:37;;;;;;;4.97;1.80;;;;;;;;;;5086966;28;20243;-77
2022/09/18 02:01:09;;;;;;;2.73;1.50;;;;;;;;;;5086805;28;20299;-78
2022/09/18 02:03:37;;;;;;;3.57;1.67;;;;;;;;;;5082690;28;20268;-78
2022/09/18 02:06:10;;;;;;;4.30;1.70;;;;;;;;;;5076398;28;20204;-77
2022/09/18 02:08:40;;;;;;;2.53;1.57;;;;;;;;;;5085205;28;20230;-77
2022/09/18 02:11:09;;;;;;;4.07;1.73;;;;;;;;;;5072046;28;20690;-76
2022/09/18 02:13:38;;;;;;;3.60;1.57;;;;;;;;;;5086889;28;20176;-77
2022/09/18 02:16:09;;;;;;;3.17;1.70;;;;;;;;;;5084453;28;20214;-77
2022/09/18 02:18:38;;;;;;;2.53;1.40;;;;;;;;;;5075994;28;20219;-77
2022/09/18 02:21:07;;;;;;;2.63;1.57;;;;;;;;;;5079749;28;20208;-77
2022/09/18 02:23:36;;;;;;;4.33;1.63;;;;;;;;;;5075544;28;20671;-77
2022/09/18 02:26:06;;;;;;;2.70;1.30;;;;;;;;;;5068320;28;20212;-77
2022/09/18 02:28:33;;;;;;;2.40;1.40;;;;;;;;;;5072361;28;20727;-78
2022/09/18 02:30:59;;;;;;;4.37;1.60;;;;;;;;;;5087187;28;20790;-77
2022/09/18 02:33:30;;;;;;;4.27;1.57;;;;;;;;;;5052439;28;20664;-76
2022/09/18 02:36:07;;;;;;;4.00;1.70;;;;;;;;;;5067201;28;20188;-77
2022/09/18 02:38:42;;;;;;;5.10;1.50;;;;;;;;;;5089679;28;20807;-77
2022/09/18 02:41:17;;;;;;;3.23;1.60;;;;;;;;;;5067288;28;20191;-77
2022/09/18 02:44:03;;;;;;;2.77;1.50;;;;;;;;;;5079317;28;20188;-78
2022/09/18 02:46:34;;;;;;;3.40;1.60;;;;;;;;;;5063783;28;20771;-76
2022/09/18 02:49:09;;;;;;;3.00;1.53;;;;;;;;;;5091406;28;20187;-76
2022/09/18 02:52:05;;;;;;;2.93;1.50;;;;;;;;;;5065306;28;20289;-78
2022/09/18 02:54:34;;;;;;;4.93;1.63;;;;;;;;;;5058379;28;20204;-77
2022/09/18 02:57:04;;;;;;;2.27;1.40;;;;;;;;;;5067440;28;20198;-77
2022/09/18 02:59:39;;;;;;;3.17;1.37;;;;;;;;;;5072228;28;20326;-78
2022/09/18 03:02:07;;;;;;;2.43;1.50;;;;;;;;;;5073091;28;20267;-77
2022/09/18 03:04:35;;;;;;;2.07;1.50;;;;;;;;;;5090408;28;20184;-77
2022/09/18 03:07:04;;;;;;;3.90;1.50;;;;;;;;;;5085771;28;20239;-77
2022/09/18 03:09:35;;;;;;;1.63;1.30;;;;;;;;;;5069977;28;20220;-77
2022/09/18 03:12:02;;;;;;;4.07;1.40;;;;;;;;;;5060264;28;20641;-77
2022/09/18 03:14:31;;;;;;;3.20;1.30;;;;;;;;;;5079160;28;20212;-77
2022/09/18 03:16:57;;;;;;;1.90;1.30;;;;;;;;;;5082588;28;20272;-77
2022/09/18 03:19:23;;;;;;;1.83;1.40;;;;;;;;;;5066718;28;20695;-77
2022/09/18 03:21:51;;;;;;;3.47;1.50;;;;;;;;;;5074292;28;20189;-77
2022/09/18 03:24:17;;;;;;;3.50;1.20;;;;;;;;;;5067268;28;20185;-77
2022/09/18 03:26:45;;;;;;;3.20;1.30;;;;;;;;;;5084550;28;20251;-74
2022/09/18 03:29:12;;;;;;;2.97;1.40;;;;;;;;;;5086259;28;20199;-78
2022/09/18 03:31:40;;;;;;;1.63;1.30;;;;;;;;;;5051350;28;20958;-78
2022/09/18 03:34:07;;;;;;;2.93;1.60;;;;;;;;;;5084750;28;20238;-76
2022/09/18 03:36:33;;;;;;;1.67;1.20;;;;;;;;;;5085396;28;20230;-77
2022/09/18 03:39:00;;;;;;;4.23;1.57;;;;;;;;;;5080735;28;20212;-77
2022/09/18 03:41:26;;;;;;;3.63;1.30;;;;;;;;;;5075059;28;20242;-76
2022/09/18 03:43:52;;;;;;;1.67;1.40;;;;;;;;;;5087010;28;20279;-77
2022/09/18 03:46:22;;;;;;;3.30;1.33;;;;;;;;;;5085277;28;20250;-77
2022/09/18 03:48:49;;;;;;;2.40;1.63;;;;;;;;;;5056531;28;20195;-77
2022/09/18 03:51:17;;;;;;;2.13;1.40;;;;;;;;;;5089976;28;20638;-77
2022/09/18 03:53:44;;;;;;;4.23;1.40;;;;;;;;;;5087226;28;20188;-77
2022/09/18 03:56:26;;;;;;;2.93;1.43;;;;;;;;;;5086799;28;20208;-77
2022/09/18 03:59:04;;;;;;;2.50;1.27;;;;;;;;;;5090301;28;20224;-77
2022/09/18 04:01:46;;;;;;;2.77;1.50;;;;;;;;;;5092349;28;20291;-77
2022/09/18 04:04:28;;;;;;;2.43;1.40;;;;;;;;;;5080326;28;20618;-77
2022/09/18 04:07:12;;;;;;;2.87;1.53;;;;;;;;;;5091411;28;20199;-76
2022/09/18 04:10:11;;;;;;;3.27;1.40;;;;;;;;;;5083059;28;20192;-76
2022/09/18 04:12:38;;;;;;;1.50;1.40;;;;;;;;;;5088460;28;20181;-77
2022/09/18 04:15:13;;;;;;;2.10;1.30;;;;;;;;;;5088311;28;20187;-77
2022/09/18 04:17:40;;;;;;;3.10;1.50;;;;;;;;;;5068188;28;20651;-76
2022/09/18 04:20:09;;;;;;;3.17;1.33;;;;;;;;;;5070035;28;20757;-76
2022/09/18 04:22:35;;;;;;;1.73;1.40;;;;;;;;;;5066497;28;20255;-76
2022/09/18 04:25:02;;;;;;;2.33;1.40;;;;;;;;;;5085188;28;20895;-77
2022/09/18 04:27:28;;;;;;;2.47;1.50;;;;;;;;;;5072267;28;20173;-78
2022/09/18 04:29:54;;;;;;;2.10;1.23;;;;;;;;;;5071161;28;20561;-78
2022/09/18 04:32:22;;;;;;;3.20;1.60;;;;;;;;;;5072256;28;20194;-78
2022/09/18 04:34:48;;;;;;;4.20;1.50;;;;;;;;;;5071708;28;20196;-76
2022/09/18 04:37:14;;;;;;;2.50;1.50;;;;;;;;;;5084929;28;20184;-77
2022/09/18 04:39:41;;;;;;;1.67;1.20;;;;;;;;;;5083199;28;20292;-75
2022/09/18 04:42:08;;;;;;;2.90;1.43;;;;;;;;;;5084313;28;20180;-77
2022/09/18 04:44:34;;;;;;;3.43;1.50;;;;;;;;;;5068838;28;20199;-78
2022/09/18 04:47:01;;;;;;;2.27;1.57;;;;;;;;;;5081416;28;20291;-77
2022/09/18 04:49:27;;;;;;;4.60;1.77;;;;;;;;;;5083478;28;20224;-77
2022/09/18 04:51:53;;;;;;;6.03;1.80;;;;;;;;;;5065728;28;20182;-78
2022/09/18 04:54:19;;;;;;;3.53;1.60;;;;;;;;;;5061270;28;20808;-77
2022/09/18 04:56:45;;;;;;;2.27;1.60;;;;;;;;;;5083691;28;20184;-77
2022/09/18 04:59:12;;;;;;;2.97;1.90;;;;;;;;;;5084883;28;20230;-78
2022/09/18 05:01:42;;;;;;;3.97;1.83;;;;;;;;;;5063684;28;20253;-77
2022/09/18 05:04:11;;;;;;;3.17;1.77;;;;;;;;;;5076848;28;20211;-77
2022/09/18 05:06:46;;;;;;;3.47;1.80;;;;;;;;;;5089274;28;20762;-77
2022/09/18 05:09:13;;;;;;;2.87;2.00;;;;;;;;;;5083110;28;20707;-78
2022/09/18 05:11:39;;;;;;;2.63;1.70;;;;;;;;;;5088232;28;20181;-77
2022/09/18 05:14:06;;;;;;;3.20;2.00;;;;;;;;;;5089413;28;20178;-77
2022/09/18 05:16:33;;;;;;;3.67;1.97;;;;;;;;;;5080117;28;20219;-76
2022/09/18 05:19:18;;;;;;;3.27;2.00;;;;;;;;;;5084523;28;20219;-75
2022/09/18 05:21:48;;;;;;;3.20;1.80;;;;;;;;;;5065910;28;20209;-77
2022/09/18 05:24:14;;;;;;;2.53;1.60;;;;;;;;;;5087263;28;20185;-78
2022/09/18 05:26:41;;;;;;;3.33;2.00;;;;;;;;;;5088212;28;20212;-76
2022/09/18 05:29:08;;;;;;;3.20;2.10;;;;;;;;;;5069565;28;20204;-78
2022/09/18 05:31:34;;;;;;;2.70;1.87;;;;;;;;;;5082763;28;20535;-76
2022/09/18 05:34:00;;;;;;;2.63;1.70;;;;;;;;;;5071333;28;20787;-78
2022/09/18 05:36:27;;;;;;;4.50;1.90;;;;;;;;;;5086125;28;20303;-76
2022/09/18 05:38:54;;;;;;;2.60;1.70;;;;;;;;;;5093151;28;20199;-77
2022/09/18 05:41:20;;;;;;;5.10;2.17;;;;;;;;;;5080384;28;20189;-77
2022/09/18 05:43:46;;;;;;;4.60;2.00;;;;;;;;;;5070174;28;20192;-77
2022/09/18 05:46:13;;;;;;;5.07;1.77;;;;;;;;;;5078459;28;20212;-77
2022/09/18 05:48:50;;;;;;;3.60;1.87;;;;;;;;;;5090958;28;20730;-77
2022/09/18 05:51:16;;;;;;;3.47;2.03;;;;;;;;;;5086691;28;20267;-76
2022/09/18 05:53:47;;;;;;;4.27;1.93;;;;;;;;;;5068074;28;20624;-77
2022/09/18 05:56:23;;;;;;;1.97;1.63;;;;;;;;;;5074714;28;20234;-77
2022/09/18 05:58:49;;;;;;;4.60;2.00;;;;;;;;;;5067041;28;20414;-77
2022/09/18 06:01:16;;;;;;;3.63;2.17;;;;;;;;;;5083593;28;20238;-77
2022/09/18 06:04:05;;;;;;;4.60;2.03;;;;;;;;;;5067933;28;20216;-77
2022/09/18 06:06:59;;;;;;;2.63;1.77;;;;;;;;;;5073294;28;20248;-77
2022/09/18 06:09:26;;;;;;;2.30;1.80;;;;;;;;;;5070545;28;20705;-77
2022/09/18 06:11:52;;;;;;;2.77;1.80;;;;;;;;;;5067631;28;20196;-77
2022/09/18 06:14:19;;;;;;;3.33;1.97;;;;;;;;;;5053203;28;20199;-77
2022/09/18 06:16:46;;;;;;;3.03;1.90;;;;;;;;;;5079456;28;20294;-76
2022/09/18 06:19:13;;;;;;;2.23;1.60;;;;;;;;;;5087323;28;20208;-76
2022/09/18 06:21:41;;;;;;;4.63;2.10;;;;;;;;;;5086295;28;20188;-77
2022/09/18 06:24:10;;;;;;;3.70;2.00;;;;;;;;;;5090967;28;20241;-78
2022/09/18 06:26:44;;;;;;;4.00;1.87;;;;;;;;;;5085466;28;20207;-77
2022/09/18 06:29:10;;;;;;;3.10;2.00;;;;;;;;;;5078779;28;20197;-78
2022/09/18 06:31:45;;;;;;;3.90;1.90;;;;;;;;;;5086386;28;20188;-77
2022/09/18 06:34:17;;;;;;;2.70;1.80;;;;;;;;;;5073742;28;20176;-75
2022/09/18 06:36:45;;;;;;;4.17;2.00;;;;;;;;;;5068267;28;20196;-77
2022/09/18 06:39:20;;;;;;;2.83;1.70;;;;;;;;;;5067882;28;20219;-78
2022/09/18 06:41:49;;;;;;;2.40;1.60;;;;;;;;;;5083354;28;20222;-76
2022/09/18 06:44:24;;;;;;;2.47;1.40;;;;;;;;;;5079225;28;20609;-78
2022/09/18 06:47:03;;;;;;;2.27;1.43;;;;;;;;;;5076086;28;20871;-74
2022/09/18 06:49:38;;;;;;;3.17;1.40;;;;;;;;;;5071428;28;20591;-74
2022/09/18 06:52:04;;;;;;;3.83;1.73;;;;;;;;;;5084961;28;20547;-74
2022/09/18 06:54:32;;;;;;;2.00;1.40;;;;;;;;;;5084394;28;20180;-77
2022/09/18 06:57:00;;;;;;;1.97;1.30;;;;;;;;;;5069491;28;20536;-78
2022/09/18 06:59:28;;;;;;;2.30;1.37;;;;;;;;;;5093828;28;20204;-79
2022/09/18 07:01:55;;;;;;;1.97;1.30;;;;;;;;;;5081947;28;20180;-79
2022/09/18 07:04:45;;;;;;;2.43;1.30;;;;;;;;;;5062837;28;20206;-81
2022/09/18 07:07:12;;;;;;;2.20;1.13;;;;;;;;;;5066298;28;20682;-81
2022/09/18 07:09:38;;;;;;;2.30;1.60;;;;;;;;;;5079237;28;20215;-78
2022/09/18 07:12:21;;;;;;;2.33;1.40;;;;;;;;;;5082115;28;20674;-78
2022/09/18 07:14:52;;;;;;;1.97;1.30;;;;;;;;;;5080877;28;20947;-80
2022/09/18 07:17:19;;;;;;;2.60;1.40;;;;;;;;;;5083295;28;20780;-78
2022/09/18 07:19:48;;;;;;;3.10;1.70;;;;;;;;;;5065200;28;20220;-79
2022/09/18 07:22:16;;;;;;;3.40;1.70;;;;;;;;;;5082477;28;21316;-78
2022/09/18 07:24:45;;;;;;;3.73;1.60;;;;;;;;;;5082562;28;20185;-80
2022/09/18 07:27:12;;;;;;;3.60;1.60;;;;;;;;;;5081027;28;20351;-80
2022/09/18 07:29:40;;;;;;;2.43;1.60;;;;;;;;;;5056044;28;20208;-80
2022/09/18 07:32:07;;;;;;;2.53;1.60;;;;;;;;;;5080542;28;20754;-78
2022/09/18 07:34:33;;;;;;;2.97;1.90;;;;;;;;;;5085177;28;20275;-79
2022/09/18 07:37:00;;;;;;;6.03;1.80;;;;;;;;;;5082478;28;20696;-80
2022/09/18 07:39:27;;;;;;;3.17;1.80;;;;;;;;;;5080127;28;20196;-79
2022/09/18 07:42:16;;;;;;;3.27;2.17;;;;;;;;;;5088260;28;20197;-78
2022/09/18 07:44:49;;;;;;;3.43;2.33;;;;;;;;;;5064194;28;20318;-78
2022/09/18 07:47:16;;;;;;;4.27;1.90;;;;;;;;;;5063403;28;20203;-79
2022/09/18 07:49:42;;;;;;;3.57;2.10;;;;;;;;;;5079488;28;20197;-78
2022/09/18 07:52:09;;;;;;;4.07;1.93;;;;;;;;;;5081489;28;20180;-78
2022/09/18 07:54:43;;;;;;;5.57;2.40;;;;;;;;;;5055455;28;20627;-77
2022/09/18 07:57:23;;;;;;;3.83;1.97;;;;;;;;;;5079311;28;20254;-78
2022/09/18 08:00:02;;;;;;;2.23;1.60;;;;;;;;;;5065790;28;20256;-78
2022/09/18 08:02:30;;;;;;;2.40;1.63;;;;;;;;;;5087545;28;20686;-76
2022/09/18 08:04:57;;;;;;;3.83;1.60;;;;;;;;;;5079851;28;20176;-77
2022/09/18 08:07:46;;;;;;;3.27;1.50;;;;;;;;;;5065848;28;20622;-77
2022/09/18 08:10:48;;;;;;;4.43;1.40;;;;;;;;;;5023119;28;21607;-76
2022/09/18 08:13:32;;;;;;;2.33;1.43;;;;;;;;;;5076863;28;20294;-78
2022/09/18 08:16:25;;;;;;;1.93;1.40;;;;;;;;;;5068054;28;20185;-77
2022/09/18 08:19:00;;;;;;;3.60;1.20;;;;;;;;;;5087861;28;20176;-77
2022/09/18 08:21:40;;;;;;;6.10;1.30;;;;;;;;;;5079173;28;20962;-78
2022/09/18 08:24:09;;;;;;;2.33;1.20;;;;;;;;;;5064107;28;20398;-77
2022/09/18 08:26:37;;;;;;;3.67;1.20;;;;;;;;;;5080429;28;20252;-77
2022/09/18 08:29:05;;;;;;;2.70;1.10;;;;;;;;;;5070775;28;20187;-79
2022/09/18 08:31:31;;;;;;;1.33;1.00;;;;;;;;;;5080193;28;21482;-75
2022/09/18 08:33:58;;;;;;;1.33;1.13;;;;;;;;;;5079740;28;20598;-75
2022/09/18 08:36:25;;;;;;;4.87;1.30;;;;;;;;;;5078961;28;20192;-76
2022/09/18 08:38:58;;;;;;;2.37;1.40;;;;;;;;;;5070029;28;20222;-77
2022/09/18 08:41:52;;;;;;;1.57;1.10;;;;;;;;;;5062085;28;20184;-78
2022/09/18 08:44:23;;;;;;;4.07;1.30;;;;;;;;;;5080195;28;20192;-77
2022/09/18 08:46:57;;;;;;;1.53;1.33;;;;;;;;;;5062167;28;20204;-77
2022/09/18 08:49:42;;;;;;;2.13;1.40;;;;;;;;;;5084141;28;20208;-78
2022/09/18 08:52:16;;;;;;;1.97;1.20;;;;;;;;;;5080885;28;20185;-78
2022/09/18 08:54:47;;;;;;;2.73;1.40;;;;;;;;;;5078962;28;20172;-77
2022/09/18 08:57:44;;;;;;;2.03;1.50;;;;;;;;;;5079428;28;20203;-77
2022/09/18 09:00:24;;;;;;;2.93;1.63;;;;;;;;;;5078321;28;20228;-78
2022/09/18 09:03:35;;;;;;;3.33;1.50;;;;;;;;;;5082312;28;20200;-74
2022/09/18 09:06:03;;;;;;;4.57;1.50;;;;;;;;;;5085200;28;20208;-74
2022/09/18 09:08:39;;;;;;;3.20;1.43;;;;;;;;;;5084210;28;20183;-78
2022/09/18 09:11:24;;;;;;;5.23;1.60;;;;;;;;;;5080823;28;20338;-77
2022/09/18 09:13:56;;;;;;;3.33;1.53;;;;;;;;;;5087467;28;20168;-78
2022/09/18 09:16:46;;;;;;;3.57;1.67;;;;;;;;;;5064686;28;20184;-77
2022/09/18 09:19:20;;;;;;;4.27;1.43;;;;;;;;;;5072753;28;20723;-77
2022/09/18 09:21:55;;;;;;;2.57;1.57;;;;;;;;;;5086509;28;20180;-78
2022/09/18 09:24:24;;;;;;;4.07;1.70;;;;;;;;;;5077363;28;20761;-78
2022/09/18 09:27:27;;;;;;;3.27;1.63;;;;;;;;;;5070577;28;20220;-75
2022/09/18 09:30:18;;;;;;;3.03;1.50;;;;;;;;;;5084946;28;20208;-79
2022/09/18 09:33:18;;;;;;;5.20;1.60;;;;;;;;;;5085312;28;20188;-78
2022/09/18 09:36:03;;;;;;;4.77;1.80;;;;;;;;;;5078400;28;20363;-77
2022/09/18 09:38:51;;;;;;;6.23;1.60;;;;;;;;;;5077936;28;20912;-76
2022/09/18 09:41:17;;;;;;;3.53;1.40;;;;;;;;;;5079979;28;22455;-78
2022/09/18 09:43:52;;;;;;;3.30;1.37;;;;;;;;;;5044760;28;20181;-76
2022/09/18 09:46:23;;;;;;;6.33;1.70;;;;;;;;;;5076998;28;20196;-78
2022/09/18 09:48:52;;;;;;;3.07;1.60;;;;;;;;;;5060928;28;20186;-79
2022/09/18 09:51:36;;;;;;;3.33;1.40;;;;;;;;;;5086754;28;20180;-79
2022/09/18 09:54:02;;;;;;;2.30;1.30;;;;;;;;;;5069648;28;20184;-77
2022/09/18 09:56:36;;;;;;;4.07;1.43;;;;;;;;;;5078499;28;20192;-77
2022/09/18 09:59:21;;;;;;;2.17;1.40;;;;;;;;;;5078523;28;20188;-78
2022/09/18 10:02:05;;;;;;;2.70;1.40;;;;;;;;;;5078620;28;20312;-77
2022/09/18 10:04:43;;;;;;;3.93;1.80;;;;;;;;;;5084494;28;20192;-79
2022/09/18 10:07:18;;;;;;;3.83;1.47;;;;;;;;;;5078396;28;20627;-78
2022/09/18 10:10:06;;;;;;;2.43;1.40;;;;;;;;;;5078051;28;20184;-79
2022/09/18 10:12:40;;;;;;;4.80;1.43;;;;;;;;;;5062335;28;20257;-79
2022/09/18 10:15:13;;;;;;;6.63;1.53;;;;;;;;;;5078431;28;20183;-79
2022/09/18 10:17:40;;;;;;;2.37;1.23;;;;;;;;;;5084789;28;20189;-78
2022/09/18 10:20:07;;;;;;;2.47;1.30;;;;;;;;;;5083604;28;20277;-79
2022/09/18 10:22:34;;;;;;;1.83;1.33;;;;;;;;;;5073747;28;20695;-79
2022/09/18 10:25:06;;;;;;;2.77;1.10;;;;;;;;;;5062412;28;20181;-79
2022/09/18 10:27:32;;;;;;;6.60;1.47;;;;;;;;;;5080001;28;20212;-78
2022/09/18 10:29:59;;;;;;;1.87;1.30;;;;;;;;;;5080120;28;20230;-78
2022/09/18 10:32:41;;;;;;;3.33;1.30;;;;;;;;;;5070310;28;20424;-77
2022/09/18 10:35:40;;;;;;;2.83;1.20;;;;;;;;;;5078954;28;20212;-79
2022/09/18 10:38:23;;;;;;;4.03;1.27;;;;;;;;;;5074297;28;20186;-79
2022/09/18 10:40:50;;;;;;;3.53;1.27;;;;;;;;;;5058487;28;20206;-78
2022/09/18 10:43:20;;;;;;;3.47;1.20;;;;;;;;;;5078667;28;20211;-79
2022/09/18 10:45:54;;;;;;;6.13;1.50;;;;;;;;;;5062139;28;20604;-78
2022/09/18 10:48:35;;;;;;;5.00;1.60;;;;;;;;;;5065556;28;20230;-79
2022/09/18 10:51:02;;;;;;;3.17;1.33;;;;;;;;;;5083258;28;20208;-78
2022/09/18 10:53:42;;;;;;;3.23;1.10;;;;;;;;;;5086350;28;20234;-78
2022/09/18 10:56:19;;;;;;;2.57;1.30;;;;;;;;;;5079121;28;20180;-79
2022/09/18 10:58:45;;;;;;;3.13;1.50;;;;;;;;;;5081464;28;20194;-79
2022/09/18 11:01:12;;;;;;;2.80;1.40;;;;;;;;;;5093773;28;20905;-77
2022/09/18 11:03:42;;;;;;;2.23;1.17;;;;;;;;;;5085397;28;20215;-79
2022/09/18 11:06:24;;;;;;;2.37;1.20;;;;;;;;;;5087004;28;20578;-77
2022/09/18 11:08:55;;;;;;;3.87;1.37;;;;;;;;;;5067492;28;20184;-80
2022/09/18 11:11:32;;;;;;;3.20;1.40;;;;;;;;;;5049804;28;20184;-77
2022/09/18 11:14:14;;;;;;;2.03;1.27;;;;;;;;;;5083994;28;20180;-79
2022/09/18 11:16:55;;;;;;;2.77;1.50;;;;;;;;;;5067561;28;20192;-80
2022/09/18 11:19:31;;;;;;;5.37;1.30;;;;;;;;;;5050452;28;20250;-78
2022/09/18 11:22:02;;;;;;;4.00;1.30;;;;;;;;;;5050380;28;20220;-79
2022/09/18 11:24:33;;;;;;;2.07;1.20;;;;;;;;;;5076272;28;20204;-79
2022/09/18 11:27:22;;;;;;;4.73;1.50;;;;;;;;;;5080944;28;20196;-79
2022/09/18 11:29:51;;;;;;;2.73;1.20;;;;;;;;;;5079638;28;20201;-79
2022/09/18 11:32:28;;;;;;;3.10;1.40;;;;;;;;;;5071642;28;20541;-79
2022/09/18 11:35:01;;;;;;;2.07;1.20;;;;;;;;;;5091451;28;20168;-79
2022/09/18 11:37:37;;;;;;;2.70;1.30;;;;;;;;;;5060364;28;20217;-79
2022/09/18 11:40:07;;;;;;;2.77;1.30;;;;;;;;;;5092458;28;20408;-80
2022/09/18 11:42:43;;;;;;;3.67;1.17;;;;;;;;;;5072504;28;20594;-78
2022/09/18 11:45:16;;;;;;;5.13;1.30;;;;;;;;;;5073308;28;20207;-76
2022/09/18 11:47:45;;;;;;;2.00;1.00;;;;;;;;;;5073911;28;20197;-80
2022/09/18 11:50:12;;;;;;;3.10;1.40;;;;;;;;;;5068589;28;20869;-77
2022/09/18 11:52:40;;;;;;;2.30;1.30;;;;;;;;;;5086922;28;20185;-75
2022/09/18 11:55:14;;;;;;;3.17;1.50;;;;;;;;;;5084073;28;20189;-75
2022/09/18 11:57:46;;;;;;;3.40;1.50;;;;;;;;;;5100044;27;20216;-76
2022/09/18 12:00:16;;;;;;;3.00;1.30;;;;;;;;;;5087743;28;20581;-75
2022/09/18 12:02:47;;;;;;;2.30;1.40;;;;;;;;;;5086617;28;20220;-75
2022/09/18 12:05:23;;;;;;;3.40;1.30;;;;;;;;;;5087610;28;20193;-76
2022/09/18 12:08:26;;;;;;;3.03;1.20;;;;;;;;;;5089729;28;20184;-76
2022/09/18 12:11:08;;;;;;;2.30;1.20;;;;;;;;;;5004926;28;20241;-76
2022/09/18 12:13:45;;;;;;;5.87;1.60;;;;;;;;;;5076066;28;20196;-76
2022/09/18 12:16:41;;;;;;;3.53;1.50;;;;;;;;;;5094560;28;20187;-76
2022/09/18 12:19:12;;;;;;;3.50;1.20;;;;;;;;;;5085952;28;20238;-76
2022/09/18 12:21:55;;;;;;;3.47;1.30;;;;;;;;;;5084664;28;20231;-76
2022/09/18 12:24:22;;;;;;;2.33;1.50;;;;;;;;;;5057980;28;20192;-74
2022/09/18 12:26:51;;;;;;;3.13;1.70;;;;;;;;;;5079628;28;20216;-75
2022/09/18 12:29:36;;;;;;;4.23;1.70;;;;;;;;;;5070528;28;20196;-74
2022/09/18 12:32:02;;;;;;;4.73;1.40;;;;;;;;;;5083166;28;20230;-77
2022/09/18 12:34:47;;;;;;;3.90;1.50;;;;;;;;;;5081929;28;20173;-78
2022/09/18 12:37:17;;;;;;;2.37;1.37;;;;;;;;;;5080596;28;20203;-79
2022/09/18 12:39:54;;;;;;;3.13;1.40;;;;;;;;;;5087385;28;20291;-79
2022/09/18 12:42:39;;;;;;;2.57;1.37;;;;;;;;;;5088621;28;20203;-78
2022/09/18 12:45:26;;;;;;;4.00;1.60;;;;;;;;;;5088374;28;20173;-78
2022/09/18 12:48:08;;;;;;;3.60;1.53;;;;;;;;;;5080241;28;20192;-79
2022/09/18 12:50:40;;;;;;;2.53;1.40;;;;;;;;;;5087778;28;20702;-79
2022/09/18 12:53:15;;;;;;;2.63;1.73;;;;;;;;;;5080421;28;20188;-79
2022/09/18 12:55:41;;;;;;;4.63;1.63;;;;;;;;;;5078090;28;20194;-79
2022/09/18 12:58:32;;;;;;;4.70;1.57;;;;;;;;;;5075720;28;20271;-77
2022/09/18 13:01:01;;;;;;;2.60;1.40;;;;;;;;;;5088127;28;20196;-79
2022/09/18 13:03:35;;;;;;;3.73;1.50;;;;;;;;;;5086618;28;20192;-78
2022/09/18 13:06:10;;;;;;;3.20;1.57;;;;;;;;;;5087818;28;20214;-78
2022/09/18 13:09:03;;;;;;;3.90;1.60;;;;;;;;;;5087692;28;20208;-78
2022/09/18 13:11:32;;;;;;;3.67;1.80;;;;;;;;;;5059831;28;20193;-79
2022/09/18 13:14:03;;;;;;;3.03;1.60;;;;;;;;;;5087787;28;20176;-79
2022/09/18 13:16:36;;;;;;;3.30;1.50;;;;;;;;;;5084426;28;20189;-77
2022/09/18 13:19:10;;;;;;;3.83;1.70;;;;;;;;;;5085301;28;20196;-78
2022/09/18 13:21:40;;;;;;;4.13;1.70;;;;;;;;;;5086825;28;20207;-80
2022/09/18 13:24:11;;;;;;;3.83;1.50;;;;;;;;;;5076845;28;20184;-74
2022/09/18 13:26:38;;;;;;;2.87;1.50;;;;;;;;;;5083717;28;20204;-76
2022/09/18 13:29:24;;;;;;;2.70;1.47;;;;;;;;;;5076584;28;20253;-76
2022/09/18 13:31:53;;;;;;;4.23;1.70;;;;;;;;;;5083268;28;20587;-77
2022/09/18 13:34:22;;;;;;;3.87;1.83;;;;;;;;;;5086148;28;20191;-74
2022/09/18 13:36:49;;;;;;;2.93;1.70;;;;;;;;;;5085600;28;20628;-78
2022/09/18 13:39:17;;;;;;;4.00;2.20;;;;;;;;;;5078572;28;20204;-76
2022/09/18 13:41:46;;;;;;;5.63;1.60;;;;;;;;;;5085647;28;20195;-76
2022/09/18 13:44:18;;;;;;;4.63;2.10;;;;;;;;;;5084085;28;20192;-78
2022/09/18 13:46:44;;;;;;;3.17;1.70;;;;;;;;;;5078094;28;20201;-77
2022/09/18 13:49:19;;;;;;;5.37;1.53;;;;;;;;;;5086468;28;20235;-77
2022/09/18 13:51:46;;;;;;;3.00;1.50;;;;;;;;;;5081518;28;20175;-80
2022/09/18 13:54:21;;;;;;;7.30;1.93;;;;;;;;;;5079357;28;20194;-77
2022/09/18 13:57:13;;;;;;;5.10;1.40;;;;;;;;;;5077618;28;20759;-77
2022/09/18 13:59:43;;;;;;;2.67;1.30;;;;;;;;;;5077193;28;20220;-76
2022/09/18 14:02:28;;;;;;;2.43;1.60;;;;;;;;;;5083900;28;20879;-77
2022/09/18 14:04:58;;;;;;;3.97;1.87;;;;;;;;;;5078054;28;20249;-77
2022/09/18 14:07:24;;;;;;;5.60;1.60;;;;;;;;;;5085106;28;20197;-76
2022/09/18 14:09:54;;;;;;;3.63;1.33;;;;;;;;;;5088592;28;20210;-76
2022/09/18 14:12:21;;;;;;;1.97;1.40;;;;;;;;;;5081270;28;20176;-76
2022/09/18 14:15:16;;;;;;;3.07;1.60;;;;;;;;;;5087030;28;20184;-77
2022/09/18 14:18:02;;;;;;;2.80;1.43;;;;;;;;;;5075193;28;20185;-78
2022/09/18 14:20:29;;;;;;;2.10;1.60;;;;;;;;;;5086018;28;20218;-79
2022/09/18 14:22:55;;;;;;;2.40;1.40;;;;;;;;;;5085254;28;20202;-79
2022/09/18 14:25:40;;;;;;;1.77;1.27;;;;;;;;;;5084922;28;20184;-76
2022/09/18 14:28:07;;;;;;;2.27;1.33;;;;;;;;;;5081303;28;20180;-78
2022/09/18 14:30:33;;;;;;;2.43;1.60;;;;;;;;;;5085829;28;20220;-76
2022/09/18 14:33:06;;;;;;;3.37;1.50;;;;;;;;;;5077139;28;20185;-76
2022/09/18 14:35:35;;;;;;;2.33;1.43;;;;;;;;;;5078773;28;20189;-75
2022/09/18 14:38:02;;;;;;;3.50;1.50;;;;;;;;;;5077001;28;20195;-76
2022/09/18 14:40:35;;;;;;;3.43;1.27;;;;;;;;;;5061945;28;20204;-75
2022/09/18 14:43:01;;;;;;;2.80;1.60;;;;;;;;;;5078772;28;20182;-75
2022/09/18 14:45:29;;;;;;;2.37;1.40;;;;;;;;;;5079691;28;20180;-75
2022/09/18 14:47:55;;;;;;;3.37;1.43;;;;;;;;;;5084697;28;20181;-76
2022/09/18 14:50:40;;;;;;;1.90;1.50;;;;;;;;;;5083549;28;20196;-75
2022/09/18 14:53:20;;;;;;;2.10;1.53;;;;;;;;;;5083946;28;20185;-75
2022/09/18 14:55:52;;;;;;;1.87;1.40;;;;;;;;;;5060230;28;20179;-75
2022/09/18 14:58:20;;;;;;;2.67;1.50;;;;;;;;;;5085910;28;20196;-76
2022/09/18 15:00:47;;;;;;;2.97;1.50;;;;;;;;;;5086283;28;20231;-75
2022/09/18 15:03:18;;;;;;;4.57;1.40;;;;;;;;;;5085932;28;20268;-75
2022/09/18 15:05:51;;;;;;;4.70;1.43;;;;;;;;;;5085476;28;20223;-75
2022/09/18 15:08:18;;;;;;;3.97;1.40;;;;;;;;;;5062485;28;20177;-75
2022/09/18 15:10:47;;;;;;;2.90;1.60;;;;;;;;;;5082593;28;20196;-75
2022/09/18 15:13:14;;;;;;;3.40;1.90;;;;;;;;;;5075184;28;20200;-75
2022/09/18 15:15:42;;;;;;;2.40;1.30;;;;;;;;;;5059563;28;20180;-75